Time;durP1;ratioP1;P1;durP2;ratioP2;P2;SDS_P1;SDS_P2;PMS_P1;PMS_P2;Temp;Humidity;BMP_temperature;BMP_pressure;BME280_temperature;BME280_humidity;BME280_pressure;Samples;Min_cycle;Max_cycle;Signal;HPM_P1;HPM_P2
2021/01/22 00:00:51;;;;;;;1.67;1.02;;;;;;;10.53;68.52;94933.38;4913459;29;20032;-78
2021/01/22 00:03:17;;;;;;;1.40;0.70;;;;;;;10.39;68.46;94897.03;4912613;29;20032;-78
2021/01/22 00:05:43;;;;;;;1.33;0.50;;;;;;;10.48;68.23;94923.84;4907632;29;20095;-78
2021/01/22 00:08:11;;;;;;;1.83;0.65;;;;;;;10.43;68.92;94928.44;4896835;29;20114;-78
2021/01/22 00:10:36;;;;;;;2.55;0.68;;;;;;;10.52;68.45;94910.25;4911341;29;20318;-77
2021/01/22 00:13:01;;;;;;;3.03;0.98;;;;;;;10.40;68.77;94914.19;4912113;29;20047;-77
2021/01/22 00:15:28;;;;;;;1.13;0.40;;;;;;;10.35;68.57;94905.72;4896012;29;20044;-78
2021/01/22 00:17:54;;;;;;;0.70;0.50;;;;;;;10.47;68.84;94885.91;4916955;29;20465;-78
2021/01/22 00:20:19;;;;;;;1.38;0.40;;;;;;;10.30;68.22;94886.56;4916686;29;20042;-78
2021/01/22 00:22:45;;;;;;;1.67;0.57;;;;;;;10.45;67.62;94863.84;4916300;29;20040;-78
2021/01/22 00:25:14;;;;;;;1.65;0.50;;;;;;;10.48;68.18;94881.47;4897832;29;20036;-78
2021/01/22 00:27:40;;;;;;;1.15;0.55;;;;;;;10.44;68.74;94864.94;4903838;29;20043;-78
2021/01/22 00:30:07;;;;;;;1.80;0.45;;;;;;;10.21;69.63;94862.34;4915560;29;20040;-78
2021/01/22 00:32:32;;;;;;;2.03;0.40;;;;;;;10.33;69.27;94833.19;4916533;29;20063;-78
2021/01/22 00:34:58;;;;;;;1.08;0.50;;;;;;;10.10;69.76;94863.66;4898745;29;20063;-77
2021/01/22 00:37:24;;;;;;;1.00;0.45;;;;;;;10.15;69.61;94860.94;4916598;29;20036;-79
2021/01/22 00:39:50;;;;;;;1.38;0.38;;;;;;;10.22;69.76;94863.88;4910129;29;20051;-79
2021/01/22 00:42:16;;;;;;;1.27;0.50;;;;;;;10.22;69.92;94865.72;4917915;29;20036;-78
2021/01/22 00:44:41;;;;;;;1.48;0.50;;;;;;;10.10;70.02;94861.81;4915651;29;20039;-78
2021/01/22 00:47:07;;;;;;;2.28;0.95;;;;;;;10.18;70.99;94846.56;4917239;29;20024;-78
2021/01/22 00:49:33;;;;;;;1.10;0.45;;;;;;;10.01;71.51;94870.66;4916228;29;20047;-77
2021/01/22 00:51:59;;;;;;;1.60;0.80;;;;;;;10.11;71.37;94865.22;4916529;29;20040;-78
2021/01/22 00:54:25;;;;;;;1.33;0.50;;;;;;;9.87;71.88;94865.50;4900471;29;20044;-78
2021/01/22 00:56:50;;;;;;;1.33;0.70;;;;;;;9.87;71.75;94863.69;4900571;29;20073;-79
2021/01/22 00:59:16;;;;;;;1.05;0.47;;;;;;;9.97;71.35;94870.47;4904386;29;20095;-78
2021/01/22 01:01:42;;;;;;;1.73;0.50;;;;;;;10.02;70.78;94870.34;4918980;29;20535;-78
2021/01/22 01:04:10;;;;;;;1.08;0.52;;;;;;;9.88;70.29;94848.84;4895893;29;20455;-78
2021/01/22 01:06:36;;;;;;;3.22;0.50;;;;;;;9.96;70.34;94868.19;4914013;29;20043;-77
2021/01/22 01:09:03;;;;;;;0.88;0.30;;;;;;;9.75;71.43;94874.63;4894195;29;20044;-78
2021/01/22 01:11:29;;;;;;;1.27;0.50;;;;;;;9.88;70.90;94856.66;4883709;29;20028;-77
2021/01/22 01:13:54;;;;;;;1.60;0.60;;;;;;;9.88;71.26;94852.22;4883103;29;20032;-77
2021/01/22 01:16:20;;;;;;;2.60;0.50;;;;;;;10.13;70.39;94847.47;4903368;29;20036;-78
2021/01/22 01:18:46;;;;;;;0.95;0.50;;;;;;;10.12;69.96;94851.88;4912908;29;20051;-78
2021/01/22 01:21:12;;;;;;;1.27;0.47;;;;;;;9.91;70.77;94859.41;4913328;29;20036;-78
2021/01/22 01:23:38;;;;;;;0.63;0.60;;;;;;;10.12;70.61;94866.72;4894821;29;20266;-78
2021/01/22 01:26:04;;;;;;;1.10;0.30;;;;;;;10.12;69.90;94853.72;4911501;29;20045;-78
2021/01/22 01:28:30;;;;;;;1.00;0.40;;;;;;;9.88;71.02;94844.41;4914312;29;20399;-78
2021/01/22 01:30:56;;;;;;;1.83;0.50;;;;;;;10.01;70.69;94853.22;4917786;29;20040;-78
2021/01/22 01:33:22;;;;;;;1.83;0.50;;;;;;;9.83;71.36;94849.72;4905353;29;20036;-78
2021/01/22 01:35:51;;;;;;;1.15;0.60;;;;;;;9.99;71.03;94844.16;4897100;29;20487;-77
2021/01/22 01:38:17;;;;;;;1.55;0.70;;;;;;;10.09;70.38;94841.31;4918957;29;20400;-77
2021/01/22 01:40:46;;;;;;;1.58;0.65;;;;;;;10.02;70.72;94830.59;4905850;29;20079;-78
2021/01/22 01:43:12;;;;;;;1.33;0.77;;;;;;;10.15;70.09;94826.38;4899375;29;20039;-78
2021/01/22 01:45:40;;;;;;;3.50;0.68;;;;;;;9.84;71.18;94830.50;4919443;29;20032;-78
2021/01/22 01:48:10;;;;;;;2.55;0.70;;;;;;;10.07;70.13;94825.25;4909457;29;20103;-78
2021/01/22 01:50:37;;;;;;;2.70;1.25;;;;;;;9.84;70.42;94827.13;4903238;29;20036;-77
2021/01/22 01:53:04;;;;;;;1.05;0.60;;;;;;;10.08;70.06;94819.00;4908005;29;20067;-78
2021/01/22 01:55:32;;;;;;;4.30;0.80;;;;;;;10.10;69.37;94828.03;4915812;29;20033;-78
2021/01/22 01:58:02;;;;;;;3.28;1.13;;;;;;;9.86;70.01;94820.56;4907866;29;20040;-78
2021/01/22 02:00:31;;;;;;;5.85;1.15;;;;;;;10.16;68.67;94820.88;4906425;29;20024;-78
2021/01/22 02:02:57;;;;;;;3.00;0.85;;;;;;;10.17;69.02;94827.59;4902467;29;20048;-78
2021/01/22 02:05:23;;;;;;;3.58;1.25;;;;;;;9.82;69.75;94819.63;4927630;23;20064;-83
2021/01/22 02:07:48;;;;;;;3.20;0.70;;;;;;;10.12;67.73;94802.47;4894224;29;20038;-81
2021/01/22 02:10:14;;;;;;;2.92;0.93;;;;;;;10.20;67.98;94805.44;4911001;29;20657;-80
2021/01/22 02:12:40;;;;;;;2.03;0.80;;;;;;;10.19;67.53;94807.25;4890879;29;20071;-80
2021/01/22 02:15:09;;;;;;;1.85;0.65;;;;;;;10.25;67.91;94818.31;4909431;29;20236;-79
2021/01/22 02:17:35;;;;;;;4.05;0.90;;;;;;;10.17;68.41;94835.41;4925975;29;20016;-80
2021/01/22 02:20:25;;;;;;;4.03;1.23;;;;;;;10.06;67.70;94808.13;4911129;29;20040;-82
2021/01/22 02:22:55;;;;;;;3.80;0.77;;;;;;;10.12;67.81;94805.09;4908166;29;20127;-81
2021/01/22 02:25:30;;;;;;;1.67;0.70;;;;;;;10.07;67.72;94812.25;4896220;29;20020;-82
2021/01/22 02:27:55;;;;;;;2.70;0.43;;;;;;;10.32;67.03;94825.72;4894423;29;20047;-82
2021/01/22 02:30:21;;;;;;;2.53;0.70;;;;;;;10.42;67.43;94815.03;4914823;29;20150;-81
2021/01/22 02:32:47;;;;;;;3.60;0.85;;;;;;;10.43;66.93;94824.38;4892813;29;20044;-82
2021/01/22 02:35:15;;;;;;;2.33;0.80;;;;;;;10.35;67.30;94818.09;4908976;29;20063;-83
2021/01/22 02:37:42;;;;;;;2.97;0.65;;;;;;;10.49;66.40;94823.19;4893047;29;20079;-79
2021/01/22 02:40:09;;;;;;;2.90;0.70;;;;;;;10.26;67.25;94810.22;4894618;29;20026;-80
2021/01/22 02:42:37;;;;;;;3.35;0.70;;;;;;;10.52;66.36;94819.97;4896216;29;20591;-83
2021/01/22 02:45:05;;;;;;;4.72;1.40;;;;;;;10.26;66.80;94815.41;4908844;29;20067;-81
2021/01/22 02:47:31;;;;;;;3.78;0.80;;;;;;;10.32;67.13;94815.31;4911663;29;20059;-81
2021/01/22 02:49:57;;;;;;;2.65;0.70;;;;;;;10.75;66.15;94830.28;4904878;29;20075;-80
2021/01/22 02:52:23;;;;;;;2.78;0.73;;;;;;;10.60;66.01;94828.88;4902996;29;20051;-81
2021/01/22 02:54:50;;;;;;;2.28;0.55;;;;;;;10.42;66.42;94825.44;4910872;29;20323;-82
2021/01/22 02:57:36;;;;;;;6.25;1.50;;;;;;;10.37;66.02;94836.00;4909855;29;20514;-82
2021/01/22 03:00:19;;;;;;;3.53;0.70;;;;;;;10.45;65.97;94848.25;4905204;29;20033;-80
2021/01/22 03:02:54;;;;;;;2.30;0.70;;;;;;;10.22;66.68;94827.47;4890223;29;20068;-79
2021/01/22 03:05:23;;;;;;;4.80;0.80;;;;;;;10.22;66.81;94808.50;4926792;28;20451;-81
2021/01/22 03:07:53;;;;;;;3.40;0.70;;;;;;;10.20;67.20;94821.81;4909073;29;20104;-82
2021/01/22 03:10:21;;;;;;;3.00;1.15;;;;;;;10.70;66.09;94830.44;4926288;29;20028;-81
2021/01/22 03:12:49;;;;;;;4.95;0.93;;;;;;;10.67;66.07;94831.78;4927179;29;20127;-80
2021/01/22 03:15:20;;;;;;;2.38;0.60;;;;;;;10.22;67.06;94830.06;4921682;29;20032;-82
2021/01/22 03:17:46;;;;;;;4.82;0.85;;;;;;;10.40;67.38;94833.56;4926503;29;20032;-81
2021/01/22 03:20:14;;;;;;;2.78;1.10;;;;;;;10.54;67.25;94833.44;4909694;29;20642;-80
2021/01/22 03:22:41;;;;;;;5.72;1.30;;;;;;;10.67;66.89;94848.16;4921479;29;20032;-80
2021/01/22 03:25:09;;;;;;;3.90;1.00;;;;;;;10.29;68.15;94838.19;4910895;29;20472;-81
2021/01/22 03:27:35;;;;;;;2.72;1.02;;;;;;;10.37;67.71;94849.00;4907703;29;20118;-81
2021/01/22 03:30:00;;;;;;;3.63;1.38;;;;;;;10.11;69.03;94862.63;4907891;29;20184;-81
2021/01/22 03:32:26;;;;;;;3.03;0.65;;;;;;;10.11;68.51;94849.59;4911057;29;20028;-81
2021/01/22 03:34:52;;;;;;;3.42;0.55;;;;;;;10.14;68.77;94846.38;4926533;29;20503;-82
2021/01/22 03:37:18;;;;;;;1.90;0.70;;;;;;;10.22;68.84;94837.13;4924972;29;20079;-80
2021/01/22 03:39:45;;;;;;;2.97;0.95;;;;;;;10.24;68.91;94848.72;4926096;29;20036;-78
2021/01/22 03:42:10;;;;;;;5.80;1.00;;;;;;;10.10;69.14;94854.03;4910955;29;20400;-81
2021/01/22 03:44:36;;;;;;;3.20;0.70;;;;;;;10.08;69.54;94845.00;4910945;29;20039;-82
2021/01/22 03:47:02;;;;;;;5.45;0.88;;;;;;;10.14;69.17;94836.00;4924480;29;20035;-81
2021/01/22 03:49:28;;;;;;;3.67;0.73;;;;;;;10.24;69.09;94827.16;4909484;29;20032;-80
2021/01/22 03:51:54;;;;;;;5.22;0.63;;;;;;;10.19;68.80;94838.47;4926003;29;20547;-80
2021/01/22 03:54:20;;;;;;;1.70;0.63;;;;;;;10.10;68.98;94817.63;4909873;29;20040;-80
2021/01/22 03:56:46;;;;;;;2.08;0.68;;;;;;;10.03;69.23;94847.72;4926079;29;20032;-81
2021/01/22 03:59:11;;;;;;;5.00;1.58;;;;;;;10.13;69.21;94842.28;4894028;29;20442;-80
2021/01/22 04:01:37;;;;;;;2.88;0.57;;;;;;;10.11;69.98;94841.81;4908525;29;20310;-80
2021/01/22 04:04:04;;;;;;;2.63;1.23;;;;;;;10.03;70.71;94852.94;4919560;29;20106;-81
2021/01/22 04:06:30;;;;;;;3.03;0.70;;;;;;;9.64;72.42;94836.16;4913364;29;20059;-80
2021/01/22 04:08:58;;;;;;;3.45;0.65;;;;;;;9.91;72.17;94836.03;4926087;29;20050;-82
2021/01/22 04:11:24;;;;;;;2.45;0.60;;;;;;;10.06;71.61;94852.34;4927811;29;20094;-81
2021/01/22 04:13:50;;;;;;;3.30;0.93;;;;;;;10.00;72.10;94837.91;4926818;29;20023;-80
2021/01/22 04:16:16;;;;;;;4.28;0.98;;;;;;;9.80;72.96;94845.16;4928137;29;20483;-81
2021/01/22 04:18:41;;;;;;;4.05;0.82;;;;;;;9.69;73.80;94854.25;4912396;29;20035;-81
2021/01/22 04:21:07;;;;;;;2.55;0.50;;;;;;;9.83;73.76;94843.78;4913367;29;20036;-80
2021/01/22 04:23:33;;;;;;;3.65;0.60;;;;;;;9.57;74.40;94842.53;4912767;29;20043;-81
2021/01/22 04:25:59;;;;;;;3.08;0.70;;;;;;;9.75;74.24;94840.84;4929143;29;20458;-81
2021/01/22 04:28:25;;;;;;;3.85;1.15;;;;;;;9.59;75.16;94831.09;4928627;29;20207;-81
2021/01/22 04:30:51;;;;;;;3.25;0.60;;;;;;;9.60;74.62;94833.41;4928827;29;20060;-78
2021/01/22 04:33:17;;;;;;;5.50;0.90;;;;;;;9.55;74.97;94821.28;4930689;29;20044;-79
2021/01/22 04:35:43;;;;;;;2.45;0.57;;;;;;;9.32;75.29;94836.09;4913295;29;20036;-81
2021/01/22 04:38:08;;;;;;;2.45;0.63;;;;;;;9.41;75.21;94823.19;4900448;29;20122;-80
2021/01/22 04:40:34;;;;;;;3.15;0.70;;;;;;;9.34;75.28;94813.19;4929762;29;20036;-81
2021/01/22 04:43:01;;;;;;;3.80;0.95;;;;;;;9.44;75.75;94822.59;4929380;29;20095;-80
2021/01/22 04:45:27;;;;;;;4.60;1.17;;;;;;;9.25;75.68;94821.97;4928734;29;20035;-81
2021/01/22 04:47:53;;;;;;;2.25;0.90;;;;;;;9.45;74.34;94816.31;4909074;29;20044;-82
2021/01/22 04:50:19;;;;;;;1.98;0.60;;;;;;;9.33;74.51;94811.66;4912600;29;20028;-81
2021/01/22 04:52:46;;;;;;;3.67;0.45;;;;;;;9.52;74.20;94814.06;4927354;29;20034;-81
2021/01/22 04:55:14;;;;;;;2.58;0.60;;;;;;;9.51;74.49;94811.78;4926759;29;20036;-80
2021/01/22 04:57:45;;;;;;;3.17;0.50;;;;;;;9.41;73.95;94802.41;4912826;29;20475;-81
2021/01/22 05:00:13;;;;;;;2.38;0.60;;;;;;;9.28;74.88;94808.41;4928081;29;20106;-80
2021/01/22 05:02:39;;;;;;;2.53;0.40;;;;;;;9.44;74.27;94814.00;4926098;29;20508;-81
2021/01/22 05:05:07;;;;;;;4.45;0.50;;;;;;;9.35;73.97;94798.38;4932059;29;20044;-81
2021/01/22 05:07:33;;;;;;;3.92;0.50;;;;;;;9.66;73.56;94800.25;4932083;29;20039;-81
2021/01/22 05:09:59;;;;;;;6.70;0.52;;;;;;;9.55;74.13;94812.72;4915629;29;20378;-80
2021/01/22 05:12:35;;;;;;;2.58;0.40;;;;;;;9.24;74.64;94804.88;4916177;29;20024;-81
2021/01/22 05:15:19;;;;;;;1.73;0.60;;;;;;;9.22;74.22;94797.38;4916264;29;20124;-81
2021/01/22 05:17:53;;;;;;;5.18;0.60;;;;;;;9.25;74.51;94793.41;4928588;29;20379;-80
2021/01/22 05:20:36;;;;;;;3.60;0.70;;;;;;;9.20;74.71;94802.06;4884445;29;20035;-81
2021/01/22 05:23:06;;;;;;;3.38;0.50;;;;;;;9.50;73.76;94812.84;4915975;29;20071;-81
2021/01/22 05:25:55;;;;;;;2.28;0.50;;;;;;;9.50;73.98;94800.63;4916166;29;20106;-81
2021/01/22 05:28:50;;;;;;;2.53;0.50;;;;;;;9.18;75.31;94799.78;4927702;29;20043;-81
2021/01/22 05:31:18;;;;;;;2.85;0.70;;;;;;;9.35;74.96;94803.56;4929726;29;20032;-81
2021/01/22 05:33:55;;;;;;;2.97;0.40;;;;;;;9.05;76.44;94795.41;4925999;29;20176;-81
2021/01/22 05:36:26;;;;;;;3.75;0.65;;;;;;;9.09;76.40;94798.94;4931999;29;20036;-81
2021/01/22 05:38:53;;;;;;;4.55;1.10;;;;;;;9.32;75.42;94785.97;4928465;29;20433;-82
2021/01/22 05:41:19;;;;;;;3.13;0.50;;;;;;;9.28;76.08;94780.59;4914900;29;20071;-81
2021/01/22 05:43:49;;;;;;;2.72;0.70;;;;;;;9.26;76.21;94785.31;4932761;29;20055;-81
2021/01/22 05:46:20;;;;;;;3.40;0.70;;;;;;;9.18;75.85;94784.22;4926672;29;20035;-81
2021/01/22 05:48:46;;;;;;;1.88;0.57;;;;;;;9.19;76.53;94780.53;4929521;29;20115;-80
2021/01/22 05:51:13;;;;;;;2.15;0.45;;;;;;;9.32;76.23;94788.56;4915657;29;20126;-80
2021/01/22 05:53:46;;;;;;;1.30;0.52;;;;;;;9.20;76.15;94794.28;4915446;29;20023;-80
2021/01/22 05:56:16;;;;;;;3.75;0.70;;;;;;;9.42;75.50;94782.38;4932431;29;20035;-81
2021/01/22 05:58:44;;;;;;;1.95;0.40;;;;;;;9.23;76.91;94785.16;4930425;29;20035;-81
2021/01/22 06:01:10;;;;;;;2.67;0.65;;;;;;;9.44;75.97;94785.44;4913987;29;20055;-81
2021/01/22 06:03:38;;;;;;;1.30;0.40;;;;;;;9.37;76.42;94791.84;4910027;29;20515;-81
2021/01/22 06:06:05;;;;;;;2.03;0.60;;;;;;;9.01;77.00;94773.66;4914501;29;20130;-81
2021/01/22 06:08:31;;;;;;;2.05;0.60;;;;;;;9.09;77.34;94785.97;4930012;29;20040;-81
2021/01/22 06:10:59;;;;;;;3.78;0.52;;;;;;;9.08;77.15;94800.00;4897306;29;20031;-80
2021/01/22 06:13:26;;;;;;;3.58;0.55;;;;;;;9.08;77.54;94787.03;4908087;29;20043;-81
2021/01/22 06:15:57;;;;;;;3.90;1.08;;;;;;;8.98;77.85;94795.81;4922403;29;20021;-81
2021/01/22 06:18:31;;;;;;;3.72;1.10;;;;;;;9.09;77.50;94783.38;4898457;29;20398;-81
2021/01/22 06:21:20;;;;;;;3.60;0.57;;;;;;;8.77;78.22;94785.09;4925889;29;20191;-81
2021/01/22 06:23:49;;;;;;;1.75;0.93;;;;;;;9.07;78.20;94784.72;4910895;29;20027;-81
2021/01/22 06:26:15;;;;;;;3.58;0.60;;;;;;;9.08;78.00;94776.66;4930674;29;20039;-84
2021/01/22 06:28:41;;;;;;;4.05;0.80;;;;;;;9.13;77.90;94786.94;4899063;29;20036;-81
2021/01/22 06:31:08;;;;;;;2.92;0.70;;;;;;;9.35;76.81;94783.56;4898715;29;20040;-81
2021/01/22 06:33:35;;;;;;;2.90;0.70;;;;;;;9.39;76.62;94783.75;4927918;29;20031;-82
2021/01/22 06:36:04;;;;;;;2.55;0.85;;;;;;;9.11;77.74;94785.66;4932104;29;20103;-81
2021/01/22 06:38:29;;;;;;;3.38;0.60;;;;;;;9.21;77.34;94789.88;4915147;29;20042;-81
2021/01/22 06:40:56;;;;;;;4.45;1.25;;;;;;;9.14;77.96;94778.06;4929242;29;20032;-82
2021/01/22 06:43:22;;;;;;;4.28;1.20;;;;;;;9.11;77.96;94786.44;4926810;29;20731;-81
2021/01/22 06:45:48;;;;;;;3.72;1.05;;;;;;;9.26;77.66;94787.16;4913352;29;20027;-81
2021/01/22 06:48:13;;;;;;;3.80;0.55;;;;;;;9.13;78.01;94792.13;4915457;29;20032;-81
2021/01/22 06:50:39;;;;;;;3.15;0.90;;;;;;;9.32;77.11;94793.75;4931395;29;20028;-81
2021/01/22 06:53:13;;;;;;;4.85;1.83;;;;;;;9.10;77.46;94786.72;4896720;29;20043;-81
2021/01/22 06:55:51;;;;;;;4.78;0.93;;;;;;;8.90;78.11;94788.69;4897982;29;20031;-83
2021/01/22 06:58:28;;;;;;;3.80;1.35;;;;;;;9.01;78.10;94794.44;4902574;29;20171;-81
2021/01/22 07:00:56;;;;;;;5.70;1.38;;;;;;;9.24;77.68;94797.09;4906929;29;20302;-81
2021/01/22 07:03:37;;;;;;;3.92;0.80;;;;;;;8.88;78.57;94800.44;4916661;29;20110;-81
2021/01/22 07:06:07;;;;;;;3.10;1.02;;;;;;;9.11;78.28;94804.59;4913176;29;20122;-81
2021/01/22 07:08:51;;;;;;;3.88;0.93;;;;;;;8.97;78.63;94814.25;4913885;29;20038;-83
2021/01/22 07:11:17;;;;;;;5.35;1.23;;;;;;;9.15;78.08;94805.56;4912379;29;20046;-85
2021/01/22 07:13:45;;;;;;;3.08;0.98;;;;;;;9.29;77.87;94810.72;4927246;29;20569;-82
2021/01/22 07:16:17;;;;;;;3.58;1.30;;;;;;;9.12;77.90;94821.72;4912771;29;20580;-82
2021/01/22 07:18:56;;;;;;;4.00;0.98;;;;;;;9.11;78.71;94802.00;4924938;29;20398;-84
2021/01/22 07:21:38;;;;;;;6.40;1.13;;;;;;;8.92;78.69;94801.38;4928067;29;20505;-82
2021/01/22 07:24:15;;;;;;;4.35;1.13;;;;;;;9.25;77.85;94796.75;4929505;29;20491;-82
2021/01/22 07:26:44;;;;;;;2.58;1.00;;;;;;;9.27;77.83;94806.84;4907594;29;20411;-80
2021/01/22 07:29:30;;;;;;;4.47;1.00;;;;;;;8.70;79.40;94810.63;4926828;29;20039;-81
2021/01/22 07:31:57;;;;;;;2.45;0.98;;;;;;;9.05;78.98;94816.16;4905283;29;20090;-84
2021/01/22 07:34:47;;;;;;;3.67;1.15;;;;;;;9.02;78.85;94810.78;4913378;29;20071;-81
2021/01/22 07:37:24;;;;;;;3.60;1.55;;;;;;;9.30;77.40;94806.28;4915780;29;20038;-81
2021/01/22 07:39:52;;;;;;;4.55;1.30;;;;;;;9.26;78.00;94800.16;4924603;29;20427;-82
2021/01/22 07:42:20;;;;;;;4.32;1.17;;;;;;;9.23;78.32;94801.50;4927868;29;20039;-82
2021/01/22 07:44:50;;;;;;;4.53;1.45;;;;;;;9.40;77.10;94813.84;4924194;29;20027;-81
2021/01/22 07:47:31;;;;;;;4.28;1.95;;;;;;;9.29;77.17;94813.31;4907844;29;20031;-81
2021/01/22 07:50:02;;;;;;;6.95;1.52;;;;;;;9.42;77.43;94823.94;4925555;29;20031;-80
2021/01/22 07:52:28;;;;;;;5.53;2.00;;;;;;;9.35;77.07;94812.13;4910543;29;20629;-81
2021/01/22 07:54:54;;;;;;;6.00;1.30;;;;;;;9.32;77.94;94811.94;4925132;29;20096;-81
2021/01/22 07:57:25;;;;;;;7.13;1.20;;;;;;;9.41;76.32;94823.19;4928406;29;20055;-81
2021/01/22 07:59:51;;;;;;;6.20;1.40;;;;;;;9.57;76.41;94832.13;4928941;29;20329;-82
2021/01/22 08:02:18;;;;;;;6.78;1.10;;;;;;;9.73;76.08;94826.59;4911747;29;20934;-82
2021/01/22 08:04:45;;;;;;;5.15;1.45;;;;;;;9.56;76.54;94832.44;4920778;29;20083;-82
2021/01/22 08:07:10;;;;;;;6.30;1.50;;;;;;;9.69;76.09;94833.44;4890355;29;20064;-82
2021/01/22 08:09:36;;;;;;;4.75;1.25;;;;;;;9.73;75.41;94842.97;4891140;29;20067;-82
2021/01/22 08:12:10;;;;;;;6.32;1.70;;;;;;;9.59;74.87;94839.66;4902618;29;20036;-81
2021/01/22 08:14:37;;;;;;;7.65;1.25;;;;;;;9.74;74.99;94841.88;4891761;29;20095;-81
2021/01/22 08:17:04;;;;;;;5.82;1.52;;;;;;;9.76;75.30;94854.59;4921671;29;20460;-81
2021/01/22 08:19:34;;;;;;;3.95;1.00;;;;;;;9.55;75.84;94849.09;4907104;29;20475;-81
2021/01/22 08:22:01;;;;;;;5.30;1.08;;;;;;;9.81;74.86;94851.88;4904284;29;20033;-82
2021/01/22 08:24:27;;;;;;;5.50;1.25;;;;;;;9.77;75.19;94863.94;4907626;29;20028;-82
2021/01/22 08:27:04;;;;;;;5.60;1.33;;;;;;;9.71;74.54;94865.84;4896174;29;20241;-82
2021/01/22 08:29:32;;;;;;;4.88;1.30;;;;;;;9.88;74.59;94869.66;4909474;29;20036;-82
2021/01/22 08:31:57;;;;;;;5.10;1.67;;;;;;;9.93;74.45;94874.72;4907555;29;20036;-82
2021/01/22 08:34:24;;;;;;;6.85;1.15;;;;;;;9.87;74.05;94881.88;4924125;29;20483;-82
2021/01/22 08:36:52;;;;;;;7.45;1.75;;;;;;;9.92;74.02;94884.38;4924978;29;20043;-81
2021/01/22 08:39:18;;;;;;;5.53;1.27;;;;;;;10.01;73.62;94881.06;4912878;29;20043;-82
2021/01/22 08:41:44;;;;;;;5.78;1.67;;;;;;;9.97;74.20;94893.84;4924594;29;20035;-82
2021/01/22 08:44:10;;;;;;;3.72;1.30;;;;;;;9.93;74.38;94896.28;4906532;29;20099;-83
2021/01/22 08:46:45;;;;;;;7.97;2.97;;;;;;;9.77;75.00;94897.72;4915177;29;20416;-82
2021/01/22 08:49:13;;;;;;;7.03;2.10;;;;;;;9.93;74.62;94905.91;4925339;29;20036;-82
2021/01/22 08:51:39;;;;;;;2.20;0.50;;;;;;;9.65;72.04;94911.22;4927916;29;20032;-82
2021/01/22 08:54:05;;;;;;;0.60;0.30;;;;;;;9.20;72.42;94916.31;4913131;29;20062;-82
2021/01/22 08:56:31;;;;;;;0.45;0.20;;;;;;;8.32;73.11;94924.91;4932359;29;20032;-83
2021/01/22 08:59:07;;;;;;;0.77;0.20;;;;;;;7.85;73.60;94921.50;4906187;29;20042;-84
2021/01/22 09:01:49;;;;;;;0.10;0.10;;;;;;;7.39;74.83;94935.84;4910611;29;20039;-81
2021/01/22 09:04:22;;;;;;;0.30;0.20;;;;;;;7.21;74.83;94949.53;4917836;29;20077;-83
2021/01/22 09:06:50;;;;;;;0.90;0.20;;;;;;;7.08;76.50;94943.22;4932485;29;20383;-82
2021/01/22 09:09:34;;;;;;;0.25;0.20;;;;;;;6.61;76.88;94952.50;4929050;29;20069;-83
2021/01/22 09:12:07;;;;;;;0.30;0.10;;;;;;;6.35;77.83;94965.66;4930138;29;20032;-80
2021/01/22 09:14:52;;;;;;;0.35;0.10;;;;;;;6.15;77.85;94982.88;4931867;29;20047;-82
2021/01/22 09:17:23;;;;;;;0.95;0.10;;;;;;;5.78;78.56;94985.94;4928107;29;20314;-85
2021/01/22 09:20:03;;;;;;;0.00;0.00;;;;;;;5.69;78.39;94983.13;4927146;29;20032;-84
2021/01/22 09:22:31;;;;;;;0.10;0.10;;;;;;;5.31;79.97;94987.94;4930881;29;20047;-84
2021/01/22 09:24:57;;;;;;;0.10;0.00;;;;;;;5.06;80.31;94984.44;4899546;29;20245;-84
2021/01/22 09:27:23;;;;;;;0.00;0.00;;;;;;;4.86;80.90;94992.97;4915259;29;20230;-83
2021/01/22 09:29:48;;;;;;;0.00;0.00;;;;;;;5.18;79.65;94998.84;4905968;29;20314;-82
2021/01/22 09:32:14;;;;;;;0.10;0.10;;;;;;;4.83;79.98;95005.63;4929297;29;20494;-84
2021/01/22 09:34:40;;;;;;;0.28;0.20;;;;;;;4.93;80.32;95020.31;4929921;29;20067;-83
2021/01/22 09:37:07;;;;;;;0.50;0.20;;;;;;;4.94;79.00;95027.78;4924954;29;20072;-83
2021/01/22 09:39:33;;;;;;;0.10;0.10;;;;;;;4.86;79.76;95031.66;4914472;29;20063;-84
2021/01/22 09:41:59;;;;;;;0.25;0.10;;;;;;;4.62;80.10;95026.28;4924205;29;20403;-83
2021/01/22 09:44:25;;;;;;;0.20;0.10;;;;;;;4.49;80.65;95042.28;4915376;29;20043;-84
2021/01/22 09:46:51;;;;;;;1.75;0.17;;;;;;;4.64;79.70;95057.75;4913994;29;20059;-82
2021/01/22 09:49:17;;;;;;;0.20;0.20;;;;;;;4.67;79.15;95053.84;4923566;29;20042;-82
2021/01/22 09:51:43;;;;;;;0.00;0.00;;;;;;;4.47;80.61;95060.56;4909047;29;20391;-82
2021/01/22 09:54:12;;;;;;;0.38;0.10;;;;;;;4.54;80.23;95060.31;4930747;29;20123;-81
2021/01/22 09:56:38;;;;;;;0.40;0.40;;;;;;;4.09;80.22;95069.53;4912754;29;20446;-83
2021/01/22 09:59:05;;;;;;;0.45;0.10;;;;;;;4.24;80.33;95085.00;4914970;29;20035;-84
2021/01/22 10:01:31;;;;;;;0.13;0.10;;;;;;;4.37;79.66;95075.22;4912390;29;20039;-82
2021/01/22 10:03:57;;;;;;;0.10;0.10;;;;;;;4.29;79.52;95073.94;4924039;28;20569;-82
2021/01/22 10:06:23;;;;;;;0.43;0.10;;;;;;;4.03;80.40;95080.88;4910578;29;20362;-84
2021/01/22 10:08:52;;;;;;;0.60;0.10;;;;;;;3.87;80.46;95073.09;4920603;29;20040;-82
2021/01/22 10:11:18;;;;;;;0.20;0.10;;;;;;;3.86;80.58;95070.78;4901972;29;20032;-83
2021/01/22 10:13:44;;;;;;;0.32;0.10;;;;;;;3.73;81.37;95083.06;4914005;29;20036;-82
2021/01/22 10:16:10;;;;;;;0.45;0.20;;;;;;;3.61;81.10;95086.91;4913118;29;20387;-83
2021/01/22 10:18:35;;;;;;;0.52;0.13;;;;;;;3.65;80.84;95095.66;4912438;29;20361;-83
2021/01/22 10:21:01;;;;;;;0.90;0.32;;;;;;;3.73;80.24;95100.31;4910345;29;20487;-82
2021/01/22 10:23:27;;;;;;;0.40;0.30;;;;;;;3.63;80.42;95093.31;4925361;29;20422;-82
2021/01/22 10:25:53;;;;;;;1.17;0.30;;;;;;;3.82;80.41;95100.59;4916849;29;20078;-81
2021/01/22 10:28:19;;;;;;;1.17;0.57;;;;;;;4.13;79.50;95106.63;4915893;29;20570;-80
2021/01/22 10:30:48;;;;;;;1.20;0.43;;;;;;;3.96;79.11;95106.06;4913174;29;20040;-80
2021/01/22 10:33:14;;;;;;;1.15;0.55;;;;;;;3.89;80.16;95091.63;4912673;29;20028;-82
2021/01/22 10:35:40;;;;;;;1.35;0.70;;;;;;;3.69;80.43;95089.00;4930754;29;20035;-83
2021/01/22 10:38:06;;;;;;;1.25;0.50;;;;;;;3.63;80.57;95097.72;4905553;29;20110;-84
2021/01/22 10:40:32;;;;;;;0.88;0.25;;;;;;;3.64;80.84;95100.03;4897567;29;20044;-82
2021/01/22 10:42:58;;;;;;;0.93;0.63;;;;;;;3.69;80.18;95101.84;4897290;29;20047;-84
2021/01/22 10:45:24;;;;;;;1.25;0.40;;;;;;;3.94;80.18;95099.38;4929383;29;20406;-83
2021/01/22 10:47:49;;;;;;;0.52;0.40;;;;;;;3.87;80.05;95096.28;4897218;29;20028;-81
2021/01/22 10:50:16;;;;;;;1.42;0.47;;;;;;;4.08;79.70;95093.75;4912231;29;20512;-81
2021/01/22 10:52:42;;;;;;;0.65;0.20;;;;;;;4.01;79.60;95100.91;4910455;29;20487;-81
2021/01/22 10:55:09;;;;;;;1.38;0.30;;;;;;;3.81;81.01;95105.00;4930125;29;20043;-81
2021/01/22 10:57:34;;;;;;;0.93;0.40;;;;;;;4.04;80.17;95108.91;4896767;29;20035;-80
2021/01/22 11:00:01;;;;;;;0.65;0.40;;;;;;;4.18;79.22;95106.66;4899845;29;20036;-82
2021/01/22 11:02:27;;;;;;;3.45;0.60;;;;;;;4.17;79.35;95099.94;4923506;29;20177;-82
2021/01/22 11:04:53;;;;;;;0.50;0.43;;;;;;;4.40;79.24;95114.13;4928539;29;20058;-80
2021/01/22 11:07:19;;;;;;;0.52;0.30;;;;;;;4.11;79.04;95117.19;4929704;29;20098;-84
2021/01/22 11:09:46;;;;;;;0.40;0.30;;;;;;;4.16;79.61;95121.56;4922363;29;20039;-82
2021/01/22 11:12:14;;;;;;;0.85;0.30;;;;;;;4.10;80.77;95115.63;4912974;29;20031;-81
2021/01/22 11:14:44;;;;;;;0.50;0.30;;;;;;;4.05;80.62;95114.84;4928704;29;20157;-82
2021/01/22 11:17:09;;;;;;;0.77;0.30;;;;;;;4.05;80.05;95130.31;4927724;29;20369;-82
2021/01/22 11:19:36;;;;;;;0.75;0.30;;;;;;;4.35;79.69;95133.97;4928984;29;20571;-81
2021/01/22 11:22:02;;;;;;;2.92;1.90;;;;;;;4.05;80.45;95130.31;4912362;29;20118;-84
2021/01/22 11:24:27;;;;;;;3.22;2.92;;;;;;;3.83;80.40;95126.09;4896674;29;20043;-83
2021/01/22 11:26:53;;;;;;;1.42;1.33;;;;;;;4.02;79.74;95141.88;4912298;29;20384;-82
2021/01/22 11:29:19;;;;;;;1.67;0.60;;;;;;;4.25;78.42;95155.31;4924134;29;20039;-81
2021/01/22 11:31:45;;;;;;;1.90;1.30;;;;;;;4.29;78.94;95146.84;4926154;29;20344;-81
2021/01/22 11:34:13;;;;;;;1.20;1.10;;;;;;;4.37;78.89;95143.00;4924228;29;20043;-80
2021/01/22 11:36:38;;;;;;;1.80;1.08;;;;;;;4.39;79.46;95140.19;4877277;29;20060;-81
2021/01/22 11:39:04;;;;;;;4.75;2.10;;;;;;;4.41;78.54;95153.59;4896322;29;20138;-81
2021/01/22 11:41:30;;;;;;;1.80;1.33;;;;;;;4.44;78.21;95153.84;4911941;29;20050;-81
2021/01/22 11:43:55;;;;;;;0.77;0.57;;;;;;;4.46;78.11;95138.13;4910904;29;20023;-80